Terminal Aerodrome Forecast
Issued by NWS Memphis, TN

Home | Current Version | Previous Version | Text Only | Print | Product List | Glossary On
Versions: 1 2 3 4 5 6 7 8 9 10 11 12
516
FTUS44 KMEG 162330
TAFJBR
TAF
KJBR 162330Z 1700/1724 19006KT P6SM FEW120 BKN200
     FM170400 18005KT P6SM VCSH SCT080 BKN120
     FM170800 18003KT 6SM -SHRA BR SCT035 OVC060
     FM171000 15004KT 4SM SHRA BR OVC010
     FM171300 15005KT P6SM VCSH OVC008
     FM171700 17006KT P6SM OVC015=

USA.gov is the U.S. government's official web portal to all federal, state and local government web resources and services.